sensor_id;sensor_type;location;lat;lon;timestamp;pressure;altitude;pressure_sealevel;temperature;humidity
70302;BME280;57706;56.326;43.882;2023-08-06T00:00:26;101104.16;;;20.06;86.84
70302;BME280;57706;56.326;43.882;2023-08-06T00:02:52;101104.53;;;20.03;86.69
70302;BME280;57706;56.326;43.882;2023-08-06T00:05:17;101104.97;;;20.00;86.79
70302;BME280;57706;56.326;43.882;2023-08-06T00:07:44;101114.00;;;19.99;86.73
70302;BME280;57706;56.326;43.882;2023-08-06T00:10:11;101105.41;;;19.97;86.90
70302;BME280;57706;56.326;43.882;2023-08-06T00:12:37;101105.78;;;19.94;87.08
70302;BME280;57706;56.326;43.882;2023-08-06T00:15:03;101109.66;;;19.91;87.22
70302;BME280;57706;56.326;43.882;2023-08-06T00:17:30;101114.38;;;19.89;87.82
70302;BME280;57706;56.326;43.882;2023-08-06T00:19:56;101117.25;;;19.88;87.89
70302;BME280;57706;56.326;43.882;2023-08-06T00:22:22;101112.34;;;19.85;87.75
70302;BME280;57706;56.326;43.882;2023-08-06T00:24:48;101116.03;;;19.84;88.10
70302;BME280;57706;56.326;43.882;2023-08-06T00:27:14;101110.91;;;19.82;88.01
70302;BME280;57706;56.326;43.882;2023-08-06T00:29:40;101110.28;;;19.80;88.49
70302;BME280;57706;56.326;43.882;2023-08-06T00:32:05;101108.84;;;19.77;88.63
70302;BME280;57706;56.326;43.882;2023-08-06T00:34:31;101108.66;;;19.79;88.42
70302;BME280;57706;56.326;43.882;2023-08-06T00:36:57;101116.47;;;19.80;89.05
70302;BME280;57706;56.326;43.882;2023-08-06T00:39:23;101108.25;;;19.75;89.15
70302;BME280;57706;56.326;43.882;2023-08-06T00:41:49;101118.91;;;19.75;89.28
70302;BME280;57706;56.326;43.882;2023-08-06T00:44:15;101119.53;;;19.71;89.12
70302;BME280;57706;56.326;43.882;2023-08-06T00:46:41;101117.28;;;19.67;89.50
70302;BME280;57706;56.326;43.882;2023-08-06T00:49:06;101119.97;;;19.67;89.41
70302;BME280;57706;56.326;43.882;2023-08-06T00:51:34;101126.28;;;19.66;89.44
70302;BME280;57706;56.326;43.882;2023-08-06T00:54:02;101118.94;;;19.69;89.31
70302;BME280;57706;56.326;43.882;2023-08-06T00:56:28;101126.69;;;19.70;89.64
70302;BME280;57706;56.326;43.882;2023-08-06T00:58:54;101131.00;;;19.71;89.59
70302;BME280;57706;56.326;43.882;2023-08-06T01:01:20;101129.59;;;19.69;89.77
70302;BME280;57706;56.326;43.882;2023-08-06T01:03:46;101136.16;;;19.66;89.90
70302;BME280;57706;56.326;43.882;2023-08-06T01:06:12;101134.09;;;19.68;89.59
70302;BME280;57706;56.326;43.882;2023-08-06T01:08:55;101133.66;;;19.71;89.49
70302;BME280;57706;56.326;43.882;2023-08-06T01:15:04;101143.97;;;19.67;89.65
70302;BME280;57706;56.326;43.882;2023-08-06T01:17:34;101144.75;;;19.68;89.45
70302;BME280;57706;56.326;43.882;2023-08-06T01:20:01;101145.78;;;19.67;89.52
70302;BME280;57706;56.326;43.882;2023-08-06T01:22:27;101148.44;;;19.67;89.59
70302;BME280;57706;56.326;43.882;2023-08-06T01:24:53;101146.81;;;19.66;89.78
70302;BME280;57706;56.326;43.882;2023-08-06T01:27:35;101138.63;;;19.67;89.39
70302;BME280;57706;56.326;43.882;2023-08-06T01:30:12;101148.03;;;19.70;89.55
70302;BME280;57706;56.326;43.882;2023-08-06T01:32:42;101141.47;;;19.73;89.61
70302;BME280;57706;56.326;43.882;2023-08-06T01:35:10;101143.94;;;19.74;89.13
70302;BME280;57706;56.326;43.882;2023-08-06T01:37:37;101142.50;;;19.78;89.25
70302;BME280;57706;56.326;43.882;2023-08-06T01:40:10;101137.78;;;19.80;89.08
70302;BME280;57706;56.326;43.882;2023-08-06T01:42:37;101140.25;;;19.82;89.24
70302;BME280;57706;56.326;43.882;2023-08-06T01:45:03;101151.13;;;19.87;89.06
70302;BME280;57706;56.326;43.882;2023-08-06T01:47:30;101152.56;;;19.90;88.74
70302;BME280;57706;56.326;43.882;2023-08-06T01:49:56;101147.66;;;20.00;88.34
70302;BME280;57706;56.326;43.882;2023-08-06T01:52:22;101148.03;;;20.17;87.91
70302;BME280;57706;56.326;43.882;2023-08-06T01:54:48;101147.19;;;20.30;86.94
70302;BME280;57706;56.326;43.882;2023-08-06T01:57:14;101146.34;;;20.43;86.22
70302;BME280;57706;56.326;43.882;2023-08-06T01:59:40;101147.59;;;20.34;86.00
70302;BME280;57706;56.326;43.882;2023-08-06T02:02:05;101154.16;;;20.31;86.12
70302;BME280;57706;56.326;43.882;2023-08-06T02:04:31;101158.28;;;20.34;86.09
70302;BME280;57706;56.326;43.882;2023-08-06T02:06:57;101155.19;;;20.37;86.26
70302;BME280;57706;56.326;43.882;2023-08-06T02:09:23;101152.06;;;20.40;86.37
70302;BME280;57706;56.326;43.882;2023-08-06T02:11:49;101152.47;;;20.44;86.00
70302;BME280;57706;56.326;43.882;2023-08-06T02:14:15;101153.28;;;20.51;85.31
70302;BME280;57706;56.326;43.882;2023-08-06T02:16:41;101150.38;;;20.59;85.19
70302;BME280;57706;56.326;43.882;2023-08-06T02:19:07;101148.72;;;20.65;84.87
70302;BME280;57706;56.326;43.882;2023-08-06T02:21:33;101148.72;;;20.72;84.81
70302;BME280;57706;56.326;43.882;2023-08-06T02:23:58;101152.16;;;20.79;84.51
70302;BME280;57706;56.326;43.882;2023-08-06T02:26:24;101149.25;;;20.87;84.34
70302;BME280;57706;56.326;43.882;2023-08-06T02:28:50;101149.00;;;20.96;84.23
70302;BME280;57706;56.326;43.882;2023-08-06T02:31:16;101155.16;;;21.03;84.38
70302;BME280;57706;56.326;43.882;2023-08-06T02:33:42;101146.88;;;21.11;83.83
70302;BME280;57706;56.326;43.882;2023-08-06T02:36:08;101150.13;;;21.20;83.06
70302;BME280;57706;56.326;43.882;2023-08-06T02:38:34;101154.38;;;21.28;83.01
70302;BME280;57706;56.326;43.882;2023-08-06T02:41:03;101159.72;;;21.35;82.55
70302;BME280;57706;56.326;43.882;2023-08-06T02:43:30;101151.03;;;21.39;82.56
70302;BME280;57706;56.326;43.882;2023-08-06T02:46:00;101154.03;;;21.50;82.03
70302;BME280;57706;56.326;43.882;2023-08-06T02:48:26;101160.56;;;21.61;81.54
70302;BME280;57706;56.326;43.882;2023-08-06T02:50:52;101161.72;;;21.71;81.14
70302;BME280;57706;56.326;43.882;2023-08-06T02:53:18;101159.19;;;21.77;80.51
70302;BME280;57706;56.326;43.882;2023-08-06T02:55:47;101155.00;;;21.88;79.82
70302;BME280;57706;56.326;43.882;2023-08-06T02:58:15;101160.28;;;21.94;79.94
70302;BME280;57706;56.326;43.882;2023-08-06T03:01:04;101154.22;;;22.06;79.04
70302;BME280;57706;56.326;43.882;2023-08-06T03:03:37;101161.31;;;22.19;78.94
70302;BME280;57706;56.326;43.882;2023-08-06T03:06:05;101153.47;;;22.17;79.86
70302;BME280;57706;56.326;43.882;2023-08-06T03:08:38;101166.41;;;22.20;78.71
70302;BME280;57706;56.326;43.882;2023-08-06T03:11:04;101153.94;;;22.33;78.09
70302;BME280;57706;56.326;43.882;2023-08-06T03:13:30;101160.19;;;22.45;77.65
70302;BME280;57706;56.326;43.882;2023-08-06T03:15:58;101164.38;;;22.60;77.10
70302;BME280;57706;56.326;43.882;2023-08-06T03:18:26;101164.91;;;22.68;76.63
70302;BME280;57706;56.326;43.882;2023-08-06T03:20:52;101171.00;;;22.76;76.35
70302;BME280;57706;56.326;43.882;2023-08-06T03:23:19;101180.78;;;22.82;76.23
70302;BME280;57706;56.326;43.882;2023-08-06T03:25:46;101174.53;;;22.88;76.29
70302;BME280;57706;56.326;43.882;2023-08-06T03:28:13;101179.75;;;23.02;75.69
70302;BME280;57706;56.326;43.882;2023-08-06T03:30:39;101179.84;;;23.07;75.16
70302;BME280;57706;56.326;43.882;2023-08-06T03:33:06;101178.28;;;23.18;74.80
70302;BME280;57706;56.326;43.882;2023-08-06T03:35:32;101187.25;;;23.23;74.25
70302;BME280;57706;56.326;43.882;2023-08-06T03:37:59;101189.44;;;23.33;73.92
70302;BME280;57706;56.326;43.882;2023-08-06T03:40:24;101180.09;;;23.36;73.75
70302;BME280;57706;56.326;43.882;2023-08-06T03:42:50;101180.59;;;23.45;73.45
70302;BME280;57706;56.326;43.882;2023-08-06T03:45:16;101183.06;;;23.58;73.35
70302;BME280;57706;56.326;43.882;2023-08-06T03:47:43;101177.94;;;23.69;72.74
70302;BME280;57706;56.326;43.882;2023-08-06T03:50:09;101181.25;;;23.71;72.45
70302;BME280;57706;56.326;43.882;2023-08-06T03:52:35;101182.38;;;23.75;72.25
70302;BME280;57706;56.326;43.882;2023-08-06T03:55:01;101187.78;;;23.87;71.88
70302;BME280;57706;56.326;43.882;2023-08-06T03:57:29;101188.25;;;23.96;71.91
70302;BME280;57706;56.326;43.882;2023-08-06T03:59:56;101193.88;;;24.06;71.47
70302;BME280;57706;56.326;43.882;2023-08-06T04:02:24;101190.38;;;24.17;70.86
70302;BME280;57706;56.326;43.882;2023-08-06T04:04:50;101190.59;;;24.28;69.86
70302;BME280;57706;56.326;43.882;2023-08-06T04:07:19;101189.78;;;24.39;68.74
70302;BME280;57706;56.326;43.882;2023-08-06T04:09:56;101184.50;;;24.44;67.91
70302;BME280;57706;56.326;43.882;2023-08-06T04:12:22;101186.59;;;24.42;67.86
70302;BME280;57706;56.326;43.882;2023-08-06T04:14:48;101177.72;;;24.54;67.45
70302;BME280;57706;56.326;43.882;2023-08-06T04:17:14;101179.22;;;24.61;66.55
70302;BME280;57706;56.326;43.882;2023-08-06T04:19:40;101180.22;;;24.72;65.64
70302;BME280;57706;56.326;43.882;2023-08-06T04:22:06;101183.38;;;24.81;65.66
70302;BME280;57706;56.326;43.882;2023-08-06T04:24:33;101193.50;;;24.91;65.52
70302;BME280;57706;56.326;43.882;2023-08-06T04:26:59;101189.94;;;25.02;65.08
70302;BME280;57706;56.326;43.882;2023-08-06T04:29:25;101194.38;;;25.09;64.87
70302;BME280;57706;56.326;43.882;2023-08-06T04:31:51;101191.78;;;25.14;64.25
70302;BME280;57706;56.326;43.882;2023-08-06T04:34:17;101194.72;;;25.12;63.07
70302;BME280;57706;56.326;43.882;2023-08-06T04:36:43;101184.97;;;25.23;62.47
70302;BME280;57706;56.326;43.882;2023-08-06T04:39:09;101185.63;;;25.31;61.35
70302;BME280;57706;56.326;43.882;2023-08-06T04:41:35;101184.78;;;25.30;61.09
70302;BME280;57706;56.326;43.882;2023-08-06T04:44:01;101185.56;;;25.42;60.83
70302;BME280;57706;56.326;43.882;2023-08-06T04:46:27;101179.91;;;25.44;61.34
70302;BME280;57706;56.326;43.882;2023-08-06T04:48:53;101182.88;;;25.60;60.64
70302;BME280;57706;56.326;43.882;2023-08-06T04:51:18;101184.53;;;25.61;60.02
70302;BME280;57706;56.326;43.882;2023-08-06T04:53:44;101178.81;;;25.74;59.53
70302;BME280;57706;56.326;43.882;2023-08-06T04:56:10;101176.88;;;25.87;59.27
70302;BME280;57706;56.326;43.882;2023-08-06T04:58:36;101183.84;;;26.05;59.32
70302;BME280;57706;56.326;43.882;2023-08-06T05:01:01;101175.66;;;26.17;57.64
70302;BME280;57706;56.326;43.882;2023-08-06T05:03:27;101178.03;;;26.30;57.50
70302;BME280;57706;56.326;43.882;2023-08-06T05:05:53;101178.22;;;26.46;57.64
70302;BME280;57706;56.326;43.882;2023-08-06T05:08:19;101172.19;;;26.61;57.33
70302;BME280;57706;56.326;43.882;2023-08-06T05:10:45;101175.19;;;26.64;57.22
70302;BME280;57706;56.326;43.882;2023-08-06T05:13:11;101168.06;;;26.75;57.08
70302;BME280;57706;56.326;43.882;2023-08-06T05:15:37;101166.78;;;26.83;56.47
70302;BME280;57706;56.326;43.882;2023-08-06T05:18:05;101173.78;;;26.84;56.70
70302;BME280;57706;56.326;43.882;2023-08-06T05:20:31;101172.28;;;26.93;56.32
70302;BME280;57706;56.326;43.882;2023-08-06T05:22:57;101176.69;;;27.00;55.77
70302;BME280;57706;56.326;43.882;2023-08-06T05:25:23;101172.44;;;27.09;55.81
70302;BME280;57706;56.326;43.882;2023-08-06T05:27:48;101177.13;;;27.19;54.95
70302;BME280;57706;56.326;43.882;2023-08-06T05:30:14;101172.59;;;27.25;54.87
70302;BME280;57706;56.326;43.882;2023-08-06T05:32:40;101178.28;;;27.28;54.71
70302;BME280;57706;56.326;43.882;2023-08-06T05:35:06;101182.34;;;27.58;54.06
70302;BME280;57706;56.326;43.882;2023-08-06T05:37:32;101176.06;;;27.85;52.93
70302;BME280;57706;56.326;43.882;2023-08-06T05:39:58;101177.03;;;28.17;52.45
70302;BME280;57706;56.326;43.882;2023-08-06T05:42:24;101178.53;;;28.46;51.61
70302;BME280;57706;56.326;43.882;2023-08-06T05:44:49;101175.72;;;28.89;50.70
70302;BME280;57706;56.326;43.882;2023-08-06T05:47:15;101169.81;;;29.33;49.31
70302;BME280;57706;56.326;43.882;2023-08-06T05:49:41;101164.97;;;29.61;48.89
70302;BME280;57706;56.326;43.882;2023-08-06T05:52:07;101162.22;;;29.87;48.23
70302;BME280;57706;56.326;43.882;2023-08-06T05:54:34;101162.09;;;30.29;46.98
70302;BME280;57706;56.326;43.882;2023-08-06T05:57:00;101169.81;;;30.67;46.64
70302;BME280;57706;56.326;43.882;2023-08-06T05:59:25;101166.53;;;30.70;46.11
70302;BME280;57706;56.326;43.882;2023-08-06T06:01:51;101169.53;;;30.58;46.06
70302;BME280;57706;56.326;43.882;2023-08-06T06:04:17;101176.13;;;30.41;46.53
70302;BME280;57706;56.326;43.882;2023-08-06T06:06:43;101176.69;;;30.38;46.62
70302;BME280;57706;56.326;43.882;2023-08-06T06:09:09;101167.53;;;30.29;45.58
70302;BME280;57706;56.326;43.882;2023-08-06T06:11:34;101163.50;;;30.16;45.79
70302;BME280;57706;56.326;43.882;2023-08-06T06:14:00;101175.66;;;30.24;45.85
70302;BME280;57706;56.326;43.882;2023-08-06T06:16:26;101172.91;;;30.34;45.69
70302;BME280;57706;56.326;43.882;2023-08-06T06:18:52;101165.00;;;30.48;45.12
70302;BME280;57706;56.326;43.882;2023-08-06T06:21:17;101166.97;;;30.87;44.34
70302;BME280;57706;56.326;43.882;2023-08-06T06:23:43;101167.75;;;32.79;40.72
70302;BME280;57706;56.326;43.882;2023-08-06T06:26:09;101147.84;;;38.38;31.10
70302;BME280;57706;56.326;43.882;2023-08-06T06:28:35;101130.16;;;43.03;24.53
70302;BME280;57706;56.326;43.882;2023-08-06T06:31:01;101132.59;;;46.04;20.14
70302;BME280;57706;56.326;43.882;2023-08-06T06:33:27;101120.00;;;47.63;18.85
70302;BME280;57706;56.326;43.882;2023-08-06T06:35:53;101116.63;;;49.18;17.54
70302;BME280;57706;56.326;43.882;2023-08-06T06:38:19;101114.66;;;50.47;15.82
70302;BME280;57706;56.326;43.882;2023-08-06T06:40:53;101103.00;;;51.44;14.79
70302;BME280;57706;56.326;43.882;2023-08-06T06:43:19;101095.38;;;52.68;13.77
70302;BME280;57706;56.326;43.882;2023-08-06T06:45:45;101089.69;;;53.60;12.57
70302;BME280;57706;56.326;43.882;2023-08-06T06:48:11;101088.09;;;54.72;11.81
70302;BME280;57706;56.326;43.882;2023-08-06T06:50:36;101089.31;;;55.51;11.08
70302;BME280;57706;56.326;43.882;2023-08-06T06:53:04;101086.31;;;55.77;10.24
70302;BME280;57706;56.326;43.882;2023-08-06T06:55:30;101084.25;;;51.98;12.90
70302;BME280;57706;56.326;43.882;2023-08-06T06:57:56;101081.09;;;53.80;10.91
70302;BME280;57706;56.326;43.882;2023-08-06T07:00:22;101079.59;;;54.28;10.09
70302;BME280;57706;56.326;43.882;2023-08-06T07:02:48;101079.41;;;52.98;11.06
70302;BME280;57706;56.326;43.882;2023-08-06T07:05:13;101076.19;;;55.26;10.00
70302;BME280;57706;56.326;43.882;2023-08-06T07:07:39;101071.44;;;56.92;8.42
70302;BME280;57706;56.326;43.882;2023-08-06T07:10:05;101073.03;;;57.80;8.71
70302;BME280;57706;56.326;43.882;2023-08-06T07:12:31;101062.59;;;58.59;8.11
70302;BME280;57706;56.326;43.882;2023-08-06T07:14:57;101063.72;;;59.22;7.98
70302;BME280;57706;56.326;43.882;2023-08-06T07:17:23;101048.41;;;58.99;8.01
70302;BME280;57706;56.326;43.882;2023-08-06T07:19:49;101055.81;;;58.81;7.30
70302;BME280;57706;56.326;43.882;2023-08-06T07:22:14;101057.47;;;59.69;6.73
70302;BME280;57706;56.326;43.882;2023-08-06T07:24:40;101051.75;;;60.04;6.79
70302;BME280;57706;56.326;43.882;2023-08-06T07:27:06;101048.28;;;59.95;7.24
70302;BME280;57706;56.326;43.882;2023-08-06T07:29:32;101038.63;;;59.65;7.14
70302;BME280;57706;56.326;43.882;2023-08-06T07:31:58;101043.09;;;59.36;7.03
70302;BME280;57706;56.326;43.882;2023-08-06T07:34:23;101035.25;;;60.50;6.70
70302;BME280;57706;56.326;43.882;2023-08-06T07:36:49;101033.81;;;60.87;6.10
70302;BME280;57706;56.326;43.882;2023-08-06T07:39:15;101035.13;;;61.30;6.03
70302;BME280;57706;56.326;43.882;2023-08-06T07:41:42;101024.56;;;60.92;6.17
70302;BME280;57706;56.326;43.882;2023-08-06T07:44:08;101027.38;;;61.24;6.63
70302;BME280;57706;56.326;43.882;2023-08-06T07:46:34;101034.63;;;61.75;5.68
70302;BME280;57706;56.326;43.882;2023-08-06T07:49:00;101025.56;;;61.65;6.10
70302;BME280;57706;56.326;43.882;2023-08-06T07:51:25;101034.88;;;62.55;6.01
70302;BME280;57706;56.326;43.882;2023-08-06T07:53:51;101018.06;;;62.85;5.26
70302;BME280;57706;56.326;43.882;2023-08-06T07:56:17;101020.91;;;62.45;5.03
70302;BME280;57706;56.326;43.882;2023-08-06T07:58:43;101020.13;;;62.68;4.93
70302;BME280;57706;56.326;43.882;2023-08-06T08:01:09;101013.34;;;61.53;5.77
70302;BME280;57706;56.326;43.882;2023-08-06T08:03:35;101013.19;;;61.68;5.95
70302;BME280;57706;56.326;43.882;2023-08-06T08:06:01;101003.81;;;62.68;4.97
70302;BME280;57706;56.326;43.882;2023-08-06T08:08:27;101007.63;;;63.28;5.27
70302;BME280;57706;56.326;43.882;2023-08-06T08:10:53;101011.78;;;63.38;5.08
70302;BME280;57706;56.326;43.882;2023-08-06T08:13:20;101010.38;;;63.62;4.73
70302;BME280;57706;56.326;43.882;2023-08-06T08:15:46;101002.81;;;62.54;4.57
70302;BME280;57706;56.326;43.882;2023-08-06T08:18:12;101008.63;;;63.48;5.04
70302;BME280;57706;56.326;43.882;2023-08-06T08:20:38;101006.34;;;64.00;4.49
70302;BME280;57706;56.326;43.882;2023-08-06T08:23:04;100991.13;;;64.28;4.30
70302;BME280;57706;56.326;43.882;2023-08-06T08:25:30;100993.91;;;63.38;4.93
70302;BME280;57706;56.326;43.882;2023-08-06T08:27:57;101005.28;;;64.03;4.21
70302;BME280;57706;56.326;43.882;2023-08-06T08:30:23;100979.06;;;64.96;4.41
70302;BME280;57706;56.326;43.882;2023-08-06T08:32:50;100991.00;;;64.39;3.80
70302;BME280;57706;56.326;43.882;2023-08-06T08:35:17;100984.63;;;63.85;4.30
70302;BME280;57706;56.326;43.882;2023-08-06T08:37:43;100993.16;;;64.33;4.05
70302;BME280;57706;56.326;43.882;2023-08-06T08:40:09;100983.69;;;64.49;3.61
70302;BME280;57706;56.326;43.882;2023-08-06T08:42:36;100984.63;;;64.88;3.75
70302;BME280;57706;56.326;43.882;2023-08-06T08:45:04;100983.16;;;65.06;3.84
70302;BME280;57706;56.326;43.882;2023-08-06T08:47:32;100981.84;;;64.83;4.15
70302;BME280;57706;56.326;43.882;2023-08-06T08:49:58;100991.53;;;63.48;4.73
70302;BME280;57706;56.326;43.882;2023-08-06T08:52:26;100983.47;;;64.42;4.15
70302;BME280;57706;56.326;43.882;2023-08-06T08:54:56;100979.06;;;64.96;4.26
70302;BME280;57706;56.326;43.882;2023-08-06T08:57:22;100982.31;;;65.31;3.81
70302;BME280;57706;56.326;43.882;2023-08-06T08:59:47;100981.97;;;64.65;4.25
70302;BME280;57706;56.326;43.882;2023-08-06T09:02:14;100976.47;;;65.23;4.33
70302;BME280;57706;56.326;43.882;2023-08-06T09:04:42;100975.94;;;64.44;3.79
70302;BME280;57706;56.326;43.882;2023-08-06T09:07:11;100976.94;;;64.77;3.69
70302;BME280;57706;56.326;43.882;2023-08-06T09:09:39;100971.22;;;65.02;4.16
70302;BME280;57706;56.326;43.882;2023-08-06T09:12:14;100965.09;;;65.17;3.34
70302;BME280;57706;56.326;43.882;2023-08-06T09:14:41;100969.25;;;63.52;3.72
70302;BME280;57706;56.326;43.882;2023-08-06T09:17:07;100960.66;;;61.03;4.50
70302;BME280;57706;56.326;43.882;2023-08-06T09:19:34;100956.38;;;61.79;4.80
70302;BME280;57706;56.326;43.882;2023-08-06T09:22:00;100945.69;;;60.70;4.82
70302;BME280;57706;56.326;43.882;2023-08-06T09:24:26;100953.66;;;62.59;4.26
70302;BME280;57706;56.326;43.882;2023-08-06T09:26:52;100946.69;;;62.78;4.35
70302;BME280;57706;56.326;43.882;2023-08-06T09:29:18;100952.91;;;63.64;3.88
70302;BME280;57706;56.326;43.882;2023-08-06T09:31:47;100958.63;;;64.67;3.85
70302;BME280;57706;56.326;43.882;2023-08-06T09:34:18;100953.44;;;64.65;3.50
70302;BME280;57706;56.326;43.882;2023-08-06T09:36:50;100940.38;;;64.76;4.46
70302;BME280;57706;56.326;43.882;2023-08-06T09:39:18;100937.78;;;64.72;4.02
70302;BME280;57706;56.326;43.882;2023-08-06T09:41:44;100945.97;;;64.32;3.78
70302;BME280;57706;56.326;43.882;2023-08-06T09:44:22;100929.59;;;64.63;3.17
70302;BME280;57706;56.326;43.882;2023-08-06T09:47:00;100925.75;;;64.60;3.56
70302;BME280;57706;56.326;43.882;2023-08-06T09:51:59;100922.38;;;62.25;5.05
70302;BME280;57706;56.326;43.882;2023-08-06T09:54:27;100928.88;;;63.90;4.07
70302;BME280;57706;56.326;43.882;2023-08-06T09:56:54;100921.63;;;64.80;3.96
70302;BME280;57706;56.326;43.882;2023-08-06T09:59:21;100924.97;;;65.10;3.57
70302;BME280;57706;56.326;43.882;2023-08-06T10:01:47;100918.28;;;65.01;3.36
70302;BME280;57706;56.326;43.882;2023-08-06T10:04:14;100922.09;;;65.10;2.93
70302;BME280;57706;56.326;43.882;2023-08-06T10:06:46;100916.47;;;65.04;3.65
70302;BME280;57706;56.326;43.882;2023-08-06T10:09:13;100915.34;;;64.32;2.97
70302;BME280;57706;56.326;43.882;2023-08-06T10:11:39;100907.78;;;63.03;4.51
70302;BME280;57706;56.326;43.882;2023-08-06T10:14:27;100906.75;;;63.06;4.29
70302;BME280;57706;56.326;43.882;2023-08-06T10:16:56;100906.75;;;64.63;3.98
70302;BME280;57706;56.326;43.882;2023-08-06T10:19:23;100897.25;;;62.01;3.73
70302;BME280;57706;56.326;43.882;2023-08-06T10:22:11;100891.31;;;62.39;4.24
70302;BME280;57706;56.326;43.882;2023-08-06T10:24:54;100887.16;;;62.85;3.89
70302;BME280;57706;56.326;43.882;2023-08-06T10:27:29;100892.25;;;63.04;3.87
70302;BME280;57706;56.326;43.882;2023-08-06T10:30:27;100890.91;;;63.76;3.95
70302;BME280;57706;56.326;43.882;2023-08-06T10:32:56;100884.63;;;63.83;3.43
70302;BME280;57706;56.326;43.882;2023-08-06T10:35:47;100889.81;;;64.21;3.82
70302;BME280;57706;56.326;43.882;2023-08-06T10:38:19;100885.31;;;64.81;3.25
70302;BME280;57706;56.326;43.882;2023-08-06T10:41:01;100892.09;;;64.22;3.45
70302;BME280;57706;56.326;43.882;2023-08-06T10:43:28;100879.66;;;64.75;3.41
70302;BME280;57706;56.326;43.882;2023-08-06T10:45:54;100880.03;;;64.10;3.33
70302;BME280;57706;56.326;43.882;2023-08-06T10:48:38;100881.78;;;63.83;3.95
70302;BME280;57706;56.326;43.882;2023-08-06T10:51:12;100873.69;;;62.92;4.24
70302;BME280;57706;56.326;43.882;2023-08-06T10:53:49;100861.06;;;62.41;4.46
70302;BME280;57706;56.326;43.882;2023-08-06T10:56:20;100869.09;;;63.36;4.12
70302;BME280;57706;56.326;43.882;2023-08-06T10:58:53;100858.72;;;63.81;4.11
70302;BME280;57706;56.326;43.882;2023-08-06T11:01:19;100864.50;;;63.69;3.93
70302;BME280;57706;56.326;43.882;2023-08-06T11:03:47;100862.88;;;63.80;3.91
70302;BME280;57706;56.326;43.882;2023-08-06T11:06:18;100863.56;;;62.96;4.78
70302;BME280;57706;56.326;43.882;2023-08-06T11:09:03;100865.81;;;63.68;4.11
70302;BME280;57706;56.326;43.882;2023-08-06T11:11:29;100862.34;;;63.45;3.55
70302;BME280;57706;56.326;43.882;2023-08-06T11:13:55;100853.75;;;63.51;3.50
70302;BME280;57706;56.326;43.882;2023-08-06T11:16:22;100860.56;;;63.78;4.10
70302;BME280;57706;56.326;43.882;2023-08-06T11:18:51;100851.72;;;62.63;4.60
70302;BME280;57706;56.326;43.882;2023-08-06T11:21:20;100848.69;;;61.99;5.03
70302;BME280;57706;56.326;43.882;2023-08-06T11:23:46;100854.88;;;61.08;5.57
70302;BME280;57706;56.326;43.882;2023-08-06T11:26:12;100847.41;;;62.28;5.04
70302;BME280;57706;56.326;43.882;2023-08-06T11:28:38;100848.91;;;61.84;5.69
70302;BME280;57706;56.326;43.882;2023-08-06T11:31:04;100850.47;;;62.53;4.80
70302;BME280;57706;56.326;43.882;2023-08-06T11:33:30;100856.06;;;62.99;4.92
70302;BME280;57706;56.326;43.882;2023-08-06T11:35:58;100853.75;;;63.51;4.51
70302;BME280;57706;56.326;43.882;2023-08-06T11:38:28;100850.81;;;63.14;4.91
70302;BME280;57706;56.326;43.882;2023-08-06T11:40:54;100833.81;;;59.38;6.11
70302;BME280;57706;56.326;43.882;2023-08-06T11:43:21;100850.00;;;58.15;6.34
70302;BME280;57706;56.326;43.882;2023-08-06T11:45:49;100846.97;;;59.21;6.18
70302;BME280;57706;56.326;43.882;2023-08-06T11:48:16;100843.91;;;61.33;5.91
70302;BME280;57706;56.326;43.882;2023-08-06T11:50:44;100839.91;;;62.25;4.96
70302;BME280;57706;56.326;43.882;2023-08-06T11:53:13;100845.31;;;62.12;4.16
70302;BME280;57706;56.326;43.882;2023-08-06T11:55:40;100847.91;;;60.01;5.39
70302;BME280;57706;56.326;43.882;2023-08-06T11:58:06;100845.09;;;61.09;5.33
70302;BME280;57706;56.326;43.882;2023-08-06T12:00:33;100841.16;;;61.67;4.66
70302;BME280;57706;56.326;43.882;2023-08-06T12:02:59;100847.28;;;58.21;6.71
70302;BME280;57706;56.326;43.882;2023-08-06T12:05:30;100848.72;;;58.62;6.21
70302;BME280;57706;56.326;43.882;2023-08-06T12:07:58;100851.13;;;60.14;6.09
70302;BME280;57706;56.326;43.882;2023-08-06T12:10:26;100844.66;;;60.78;5.46
70302;BME280;57706;56.326;43.882;2023-08-06T12:12:53;100842.44;;;60.99;5.43
70302;BME280;57706;56.326;43.882;2023-08-06T12:15:19;100840.78;;;59.17;5.62
70302;BME280;57706;56.326;43.882;2023-08-06T12:17:46;100838.75;;;59.64;6.24
70302;BME280;57706;56.326;43.882;2023-08-06T12:20:12;100838.50;;;60.48;5.56
70302;BME280;57706;56.326;43.882;2023-08-06T12:22:38;100828.94;;;60.83;5.90
70302;BME280;57706;56.326;43.882;2023-08-06T12:25:07;100830.72;;;59.36;5.80
70302;BME280;57706;56.326;43.882;2023-08-06T12:27:35;100839.22;;;58.80;6.65
70302;BME280;57706;56.326;43.882;2023-08-06T12:30:01;100832.19;;;59.53;5.89
70302;BME280;57706;56.326;43.882;2023-08-06T12:32:35;100828.16;;;59.18;6.49
70302;BME280;57706;56.326;43.882;2023-08-06T12:35:01;100824.06;;;59.40;5.79
70302;BME280;57706;56.326;43.882;2023-08-06T12:37:33;100826.63;;;59.17;6.19
70302;BME280;57706;56.326;43.882;2023-08-06T12:40:00;100824.63;;;59.44;6.24
70302;BME280;57706;56.326;43.882;2023-08-06T12:42:26;100817.47;;;59.48;6.09
70302;BME280;57706;56.326;43.882;2023-08-06T12:44:52;100828.75;;;59.43;6.50
70302;BME280;57706;56.326;43.882;2023-08-06T12:47:18;100819.22;;;58.03;6.84
70302;BME280;57706;56.326;43.882;2023-08-06T12:49:44;100816.56;;;58.44;6.75
70302;BME280;57706;56.326;43.882;2023-08-06T12:52:10;100810.03;;;58.23;7.45